sensor_id;sensor_type;location;lat;lon;timestamp;temperature;humidity
21722;DHT22;11023;48.274;7.794;2023-05-10T00:01:49;14.90;99.90
21722;DHT22;11023;48.274;7.794;2023-05-10T00:04:14;14.90;99.90
21722;DHT22;11023;48.274;7.794;2023-05-10T00:06:40;14.90;99.90
21722;DHT22;11023;48.274;7.794;2023-05-10T00:09:06;14.90;99.90
21722;DHT22;11023;48.274;7.794;2023-05-10T00:11:32;14.90;99.90
21722;DHT22;11023;48.274;7.794;2023-05-10T00:13:58;14.90;99.90
21722;DHT22;11023;48.274;7.794;2023-05-10T00:16:23;14.90;99.90
21722;DHT22;11023;48.274;7.794;2023-05-10T00:18:49;14.80;99.90
21722;DHT22;11023;48.274;7.794;2023-05-10T00:21:15;14.80;99.90
21722;DHT22;11023;48.274;7.794;2023-05-10T00:23:40;14.90;99.90
21722;DHT22;11023;48.274;7.794;2023-05-10T00:26:08;14.80;99.90
21722;DHT22;11023;48.274;7.794;2023-05-10T00:28:33;14.80;99.90
21722;DHT22;11023;48.274;7.794;2023-05-10T00:30:59;14.80;99.90
21722;DHT22;11023;48.274;7.794;2023-05-10T00:33:25;14.80;99.90
21722;DHT22;11023;48.274;7.794;2023-05-10T00:35:51;14.80;99.90
21722;DHT22;11023;48.274;7.794;2023-05-10T00:38:17;14.80;99.90
21722;DHT22;11023;48.274;7.794;2023-05-10T00:40:42;14.90;99.90
21722;DHT22;11023;48.274;7.794;2023-05-10T00:43:09;14.90;99.90
21722;DHT22;11023;48.274;7.794;2023-05-10T00:45:36;14.90;99.90
21722;DHT22;11023;48.274;7.794;2023-05-10T00:48:02;14.80;99.90
21722;DHT22;11023;48.274;7.794;2023-05-10T00:50:30;14.80;99.90
21722;DHT22;11023;48.274;7.794;2023-05-10T00:52:57;14.80;99.90
21722;DHT22;11023;48.274;7.794;2023-05-10T00:55:23;14.80;99.90
21722;DHT22;11023;48.274;7.794;2023-05-10T00:57:49;14.80;99.90
21722;DHT22;11023;48.274;7.794;2023-05-10T01:00:15;14.80;99.90
21722;DHT22;11023;48.274;7.794;2023-05-10T01:02:45;14.80;99.90
21722;DHT22;11023;48.274;7.794;2023-05-10T01:05:12;14.80;99.90
21722;DHT22;11023;48.274;7.794;2023-05-10T01:07:38;14.80;99.90
21722;DHT22;11023;48.274;7.794;2023-05-10T01:10:05;14.80;99.90
21722;DHT22;11023;48.274;7.794;2023-05-10T01:12:33;14.80;99.90
21722;DHT22;11023;48.274;7.794;2023-05-10T01:15:00;14.80;99.90
21722;DHT22;11023;48.274;7.794;2023-05-10T01:17:29;14.90;99.90
21722;DHT22;11023;48.274;7.794;2023-05-10T01:19:55;14.90;99.90
21722;DHT22;11023;48.274;7.794;2023-05-10T01:36:38;14.70;99.90
21722;DHT22;11023;48.274;7.794;2023-05-10T01:39:19;14.70;99.90
21722;DHT22;11023;48.274;7.794;2023-05-10T01:41:56;14.70;99.90
21722;DHT22;11023;48.274;7.794;2023-05-10T01:44:41;14.70;99.90
21722;DHT22;11023;48.274;7.794;2023-05-10T01:47:17;14.70;99.90
21722;DHT22;11023;48.274;7.794;2023-05-10T01:49:49;14.70;99.90
21722;DHT22;11023;48.274;7.794;2023-05-10T01:52:18;14.70;99.90
21722;DHT22;11023;48.274;7.794;2023-05-10T01:54:59;14.70;99.90
21722;DHT22;11023;48.274;7.794;2023-05-10T01:57:30;14.70;99.90
21722;DHT22;11023;48.274;7.794;2023-05-10T01:59:59;14.70;99.90
21722;DHT22;11023;48.274;7.794;2023-05-10T02:02:28;14.70;99.90
21722;DHT22;11023;48.274;7.794;2023-05-10T02:04:56;14.60;99.90
21722;DHT22;11023;48.274;7.794;2023-05-10T02:07:27;14.70;99.90
21722;DHT22;11023;48.274;7.794;2023-05-10T02:09:55;14.60;99.90
21722;DHT22;11023;48.274;7.794;2023-05-10T02:12:22;14.60;99.90
21722;DHT22;11023;48.274;7.794;2023-05-10T02:14:51;14.60;99.90
21722;DHT22;11023;48.274;7.794;2023-05-10T02:17:18;14.60;99.90
21722;DHT22;11023;48.274;7.794;2023-05-10T02:19:47;14.60;99.90
21722;DHT22;11023;48.274;7.794;2023-05-10T02:22:13;14.60;99.90
21722;DHT22;11023;48.274;7.794;2023-05-10T02:24:41;14.60;99.90
21722;DHT22;11023;48.274;7.794;2023-05-10T02:27:09;14.60;99.90
21722;DHT22;11023;48.274;7.794;2023-05-10T02:29:37;14.60;99.90
21722;DHT22;11023;48.274;7.794;2023-05-10T02:32:04;14.60;99.90
21722;DHT22;11023;48.274;7.794;2023-05-10T02:34:32;14.60;99.90
21722;DHT22;11023;48.274;7.794;2023-05-10T02:36:58;14.50;99.90
21722;DHT22;11023;48.274;7.794;2023-05-10T02:39:25;14.60;99.90
21722;DHT22;11023;48.274;7.794;2023-05-10T02:41:54;14.50;99.90
21722;DHT22;11023;48.274;7.794;2023-05-10T02:44:21;14.50;99.90
21722;DHT22;11023;48.274;7.794;2023-05-10T02:46:50;14.40;99.90
21722;DHT22;11023;48.274;7.794;2023-05-10T02:49:16;14.40;99.90
21722;DHT22;11023;48.274;7.794;2023-05-10T02:51:53;14.40;99.90
21722;DHT22;11023;48.274;7.794;2023-05-10T02:54:24;14.50;99.90
21722;DHT22;11023;48.274;7.794;2023-05-10T02:57:00;14.50;99.90
21722;DHT22;11023;48.274;7.794;2023-05-10T02:59:26;14.50;99.90
21722;DHT22;11023;48.274;7.794;2023-05-10T03:01:52;14.40;99.90
21722;DHT22;11023;48.274;7.794;2023-05-10T03:04:19;14.50;99.90
21722;DHT22;11023;48.274;7.794;2023-05-10T03:06:45;14.50;99.90
21722;DHT22;11023;48.274;7.794;2023-05-10T03:09:11;14.50;99.90
21722;DHT22;11023;48.274;7.794;2023-05-10T03:14:57;14.50;99.90
21722;DHT22;11023;48.274;7.794;2023-05-10T03:17:32;14.40;99.90
21722;DHT22;11023;48.274;7.794;2023-05-10T03:20:06;14.40;99.90
21722;DHT22;11023;48.274;7.794;2023-05-10T03:22:44;14.40;99.90
21722;DHT22;11023;48.274;7.794;2023-05-10T03:25:11;14.40;99.90
21722;DHT22;11023;48.274;7.794;2023-05-10T03:27:40;14.40;99.90
21722;DHT22;11023;48.274;7.794;2023-05-10T03:30:11;14.40;99.90
21722;DHT22;11023;48.274;7.794;2023-05-10T03:32:37;14.40;99.90
21722;DHT22;11023;48.274;7.794;2023-05-10T03:35:09;14.30;99.90
21722;DHT22;11023;48.274;7.794;2023-05-10T03:37:35;14.30;99.90
21722;DHT22;11023;48.274;7.794;2023-05-10T03:40:02;14.30;99.90
21722;DHT22;11023;48.274;7.794;2023-05-10T03:42:27;14.30;99.90
21722;DHT22;11023;48.274;7.794;2023-05-10T03:44:55;14.30;99.90
21722;DHT22;11023;48.274;7.794;2023-05-10T03:47:20;14.30;99.90
21722;DHT22;11023;48.274;7.794;2023-05-10T03:49:46;14.20;99.90
21722;DHT22;11023;48.274;7.794;2023-05-10T03:52:12;14.20;99.90
21722;DHT22;11023;48.274;7.794;2023-05-10T03:54:38;14.20;99.90
21722;DHT22;11023;48.274;7.794;2023-05-10T03:57:04;14.10;99.90
21722;DHT22;11023;48.274;7.794;2023-05-10T03:59:30;14.10;99.90
21722;DHT22;11023;48.274;7.794;2023-05-10T04:01:55;14.20;99.90
21722;DHT22;11023;48.274;7.794;2023-05-10T04:04:22;14.10;99.90
21722;DHT22;11023;48.274;7.794;2023-05-10T04:06:48;14.10;99.90
21722;DHT22;11023;48.274;7.794;2023-05-10T04:09:15;14.10;99.90
21722;DHT22;11023;48.274;7.794;2023-05-10T04:11:42;14.10;99.90
21722;DHT22;11023;48.274;7.794;2023-05-10T04:14:08;14.10;99.90
21722;DHT22;11023;48.274;7.794;2023-05-10T04:16:34;14.10;99.90
21722;DHT22;11023;48.274;7.794;2023-05-10T04:18:59;14.20;99.90
21722;DHT22;11023;48.274;7.794;2023-05-10T04:21:25;14.20;99.90
21722;DHT22;11023;48.274;7.794;2023-05-10T04:23:51;14.20;99.90
21722;DHT22;11023;48.274;7.794;2023-05-10T04:26:17;14.20;99.90
21722;DHT22;11023;48.274;7.794;2023-05-10T04:28:43;14.10;99.90
21722;DHT22;11023;48.274;7.794;2023-05-10T04:31:09;14.20;99.90
21722;DHT22;11023;48.274;7.794;2023-05-10T04:33:37;14.10;99.90
21722;DHT22;11023;48.274;7.794;2023-05-10T04:36:03;14.10;99.90
21722;DHT22;11023;48.274;7.794;2023-05-10T04:38:29;14.10;99.90
21722;DHT22;11023;48.274;7.794;2023-05-10T04:41:06;14.00;99.90
21722;DHT22;11023;48.274;7.794;2023-05-10T04:43:32;14.10;99.90
21722;DHT22;11023;48.274;7.794;2023-05-10T04:45:58;14.00;99.90
21722;DHT22;11023;48.274;7.794;2023-05-10T04:48:25;14.00;99.90
21722;DHT22;11023;48.274;7.794;2023-05-10T04:50:51;14.10;99.90
21722;DHT22;11023;48.274;7.794;2023-05-10T04:53:17;14.10;99.90
21722;DHT22;11023;48.274;7.794;2023-05-10T04:55:42;14.10;99.90
21722;DHT22;11023;48.274;7.794;2023-05-10T04:58:08;14.10;99.90
21722;DHT22;11023;48.274;7.794;2023-05-10T05:00:34;14.10;99.90
21722;DHT22;11023;48.274;7.794;2023-05-10T05:03:00;14.10;99.90
21722;DHT22;11023;48.274;7.794;2023-05-10T05:05:26;14.10;99.90
21722;DHT22;11023;48.274;7.794;2023-05-10T05:07:51;14.10;99.90
21722;DHT22;11023;48.274;7.794;2023-05-10T05:10:17;14.20;99.90
21722;DHT22;11023;48.274;7.794;2023-05-10T05:12:43;14.20;99.90
21722;DHT22;11023;48.274;7.794;2023-05-10T05:15:09;14.20;99.90
21722;DHT22;11023;48.274;7.794;2023-05-10T05:17:36;14.20;99.90
21722;DHT22;11023;48.274;7.794;2023-05-10T05:20:01;14.30;99.90
21722;DHT22;11023;48.274;7.794;2023-05-10T05:22:27;14.30;99.90
21722;DHT22;11023;48.274;7.794;2023-05-10T05:24:56;14.30;99.90
21722;DHT22;11023;48.274;7.794;2023-05-10T05:27:24;14.30;99.90
21722;DHT22;11023;48.274;7.794;2023-05-10T05:29:56;14.30;99.90
21722;DHT22;11023;48.274;7.794;2023-05-10T05:32:23;14.30;99.90
21722;DHT22;11023;48.274;7.794;2023-05-10T05:34:49;14.30;99.90
21722;DHT22;11023;48.274;7.794;2023-05-10T05:37:15;14.30;99.90
21722;DHT22;11023;48.274;7.794;2023-05-10T05:39:42;14.30;99.90
21722;DHT22;11023;48.274;7.794;2023-05-10T05:42:09;14.30;99.90
21722;DHT22;11023;48.274;7.794;2023-05-10T05:44:34;14.20;99.90
21722;DHT22;11023;48.274;7.794;2023-05-10T05:47:00;14.30;99.90
21722;DHT22;11023;48.274;7.794;2023-05-10T05:49:26;14.20;99.90
21722;DHT22;11023;48.274;7.794;2023-05-10T05:51:52;14.20;99.90
21722;DHT22;11023;48.274;7.794;2023-05-10T05:54:18;14.30;99.90
21722;DHT22;11023;48.274;7.794;2023-05-10T05:56:43;14.20;99.90
21722;DHT22;11023;48.274;7.794;2023-05-10T05:59:10;14.30;99.90
21722;DHT22;11023;48.274;7.794;2023-05-10T06:01:36;14.30;99.90
21722;DHT22;11023;48.274;7.794;2023-05-10T06:04:02;14.30;99.90
21722;DHT22;11023;48.274;7.794;2023-05-10T06:06:28;14.30;99.90
21722;DHT22;11023;48.274;7.794;2023-05-10T06:08:54;14.30;99.90
21722;DHT22;11023;48.274;7.794;2023-05-10T06:11:19;14.30;99.90
21722;DHT22;11023;48.274;7.794;2023-05-10T06:13:46;14.30;99.90
21722;DHT22;11023;48.274;7.794;2023-05-10T06:16:12;14.40;99.90
21722;DHT22;11023;48.274;7.794;2023-05-10T06:18:38;14.40;99.90
21722;DHT22;11023;48.274;7.794;2023-05-10T06:21:04;14.40;99.90
21722;DHT22;11023;48.274;7.794;2023-05-10T06:23:30;14.40;99.90
21722;DHT22;11023;48.274;7.794;2023-05-10T06:25:56;14.40;99.90
21722;DHT22;11023;48.274;7.794;2023-05-10T06:28:22;14.40;99.90
21722;DHT22;11023;48.274;7.794;2023-05-10T06:30:49;14.40;99.90
21722;DHT22;11023;48.274;7.794;2023-05-10T06:33:15;14.50;99.90
21722;DHT22;11023;48.274;7.794;2023-05-10T06:35:41;14.40;99.90
21722;DHT22;11023;48.274;7.794;2023-05-10T06:38:07;14.40;99.90
21722;DHT22;11023;48.274;7.794;2023-05-10T06:40:33;14.50;99.90
21722;DHT22;11023;48.274;7.794;2023-05-10T06:42:58;14.50;99.90
21722;DHT22;11023;48.274;7.794;2023-05-10T06:45:24;14.50;99.90
21722;DHT22;11023;48.274;7.794;2023-05-10T06:47:50;14.50;99.90
21722;DHT22;11023;48.274;7.794;2023-05-10T06:50:16;14.50;99.90
21722;DHT22;11023;48.274;7.794;2023-05-10T06:52:41;14.60;99.90
21722;DHT22;11023;48.274;7.794;2023-05-10T06:55:08;14.70;99.90
21722;DHT22;11023;48.274;7.794;2023-05-10T06:57:34;14.80;99.90
21722;DHT22;11023;48.274;7.794;2023-05-10T07:00:00;14.80;99.90
21722;DHT22;11023;48.274;7.794;2023-05-10T07:02:26;14.80;99.90
21722;DHT22;11023;48.274;7.794;2023-05-10T07:04:52;14.90;99.90
21722;DHT22;11023;48.274;7.794;2023-05-10T07:07:19;14.90;99.90
21722;DHT22;11023;48.274;7.794;2023-05-10T07:09:45;15.00;99.90
21722;DHT22;11023;48.274;7.794;2023-05-10T07:12:12;14.90;99.90
21722;DHT22;11023;48.274;7.794;2023-05-10T07:14:37;14.90;99.90
21722;DHT22;11023;48.274;7.794;2023-05-10T07:17:03;15.00;99.90
21722;DHT22;11023;48.274;7.794;2023-05-10T07:19:29;15.00;99.90
21722;DHT22;11023;48.274;7.794;2023-05-10T07:21:55;15.00;99.90
21722;DHT22;11023;48.274;7.794;2023-05-10T07:24:21;15.10;99.90
21722;DHT22;11023;48.274;7.794;2023-05-10T07:26:46;15.10;99.90
21722;DHT22;11023;48.274;7.794;2023-05-10T07:29:13;15.10;99.90
21722;DHT22;11023;48.274;7.794;2023-05-10T07:31:39;15.20;99.90
21722;DHT22;11023;48.274;7.794;2023-05-10T07:34:07;15.30;99.90
21722;DHT22;11023;48.274;7.794;2023-05-10T07:36:33;15.30;99.90
21722;DHT22;11023;48.274;7.794;2023-05-10T07:39:02;15.40;99.90
21722;DHT22;11023;48.274;7.794;2023-05-10T07:41:27;15.40;99.90
21722;DHT22;11023;48.274;7.794;2023-05-10T07:43:53;15.50;99.90
21722;DHT22;11023;48.274;7.794;2023-05-10T07:46:19;15.50;99.90
21722;DHT22;11023;48.274;7.794;2023-05-10T07:48:45;15.50;99.90
21722;DHT22;11023;48.274;7.794;2023-05-10T07:51:11;15.50;99.90
21722;DHT22;11023;48.274;7.794;2023-05-10T07:53:38;15.50;99.90
21722;DHT22;11023;48.274;7.794;2023-05-10T07:56:28;15.50;99.90
21722;DHT22;11023;48.274;7.794;2023-05-10T07:58:58;15.50;99.90
21722;DHT22;11023;48.274;7.794;2023-05-10T08:01:25;15.50;99.90
21722;DHT22;11023;48.274;7.794;2023-05-10T08:03:51;15.50;99.90
21722;DHT22;11023;48.274;7.794;2023-05-10T08:06:19;15.60;99.90
21722;DHT22;11023;48.274;7.794;2023-05-10T08:08:46;15.70;99.90
21722;DHT22;11023;48.274;7.794;2023-05-10T08:11:18;15.80;99.90
21722;DHT22;11023;48.274;7.794;2023-05-10T08:13:45;16.00;99.90
21722;DHT22;11023;48.274;7.794;2023-05-10T08:16:11;16.20;99.90
21722;DHT22;11023;48.274;7.794;2023-05-10T08:18:37;16.40;99.90
21722;DHT22;11023;48.274;7.794;2023-05-10T08:21:03;16.60;99.90
21722;DHT22;11023;48.274;7.794;2023-05-10T08:23:29;16.70;99.90
21722;DHT22;11023;48.274;7.794;2023-05-10T08:25:54;16.90;99.90
21722;DHT22;11023;48.274;7.794;2023-05-10T08:28:20;17.00;99.90
21722;DHT22;11023;48.274;7.794;2023-05-10T08:30:46;17.10;99.90
21722;DHT22;11023;48.274;7.794;2023-05-10T08:33:12;17.20;99.90
21722;DHT22;11023;48.274;7.794;2023-05-10T08:35:37;17.20;99.90
21722;DHT22;11023;48.274;7.794;2023-05-10T08:38:03;17.10;99.90
21722;DHT22;11023;48.274;7.794;2023-05-10T08:40:31;16.90;99.90
21722;DHT22;11023;48.274;7.794;2023-05-10T08:43:05;16.80;99.90
21722;DHT22;11023;48.274;7.794;2023-05-10T08:45:37;16.70;99.90
21722;DHT22;11023;48.274;7.794;2023-05-10T08:48:05;16.60;99.90
21722;DHT22;11023;48.274;7.794;2023-05-10T08:50:33;16.30;99.90
21722;DHT22;11023;48.274;7.794;2023-05-10T08:53:00;16.20;99.90
21722;DHT22;11023;48.274;7.794;2023-05-10T08:55:29;16.10;99.90
21722;DHT22;11023;48.274;7.794;2023-05-10T08:57:55;15.80;99.90
21722;DHT22;11023;48.274;7.794;2023-05-10T09:00:23;15.70;99.90
21722;DHT22;11023;48.274;7.794;2023-05-10T09:02:50;15.60;99.90
21722;DHT22;11023;48.274;7.794;2023-05-10T09:05:15;15.50;99.90
21722;DHT22;11023;48.274;7.794;2023-05-10T09:07:43;15.30;99.90
21722;DHT22;11023;48.274;7.794;2023-05-10T09:10:10;15.30;99.90
21722;DHT22;11023;48.274;7.794;2023-05-10T09:12:36;15.30;99.90
21722;DHT22;11023;48.274;7.794;2023-05-10T09:15:04;15.30;99.90
21722;DHT22;11023;48.274;7.794;2023-05-10T09:17:30;15.30;99.90
21722;DHT22;11023;48.274;7.794;2023-05-10T09:20:00;15.40;99.90
21722;DHT22;11023;48.274;7.794;2023-05-10T09:22:28;15.50;99.90
21722;DHT22;11023;48.274;7.794;2023-05-10T09:25:04;15.60;99.90
21722;DHT22;11023;48.274;7.794;2023-05-10T09:27:32;15.70;99.90
21722;DHT22;11023;48.274;7.794;2023-05-10T09:29:58;15.80;99.90
21722;DHT22;11023;48.274;7.794;2023-05-10T09:32:57;15.90;99.90
21722;DHT22;11023;48.274;7.794;2023-05-10T09:35:26;16.10;99.90
21722;DHT22;11023;48.274;7.794;2023-05-10T09:37:54;16.30;99.90
21722;DHT22;11023;48.274;7.794;2023-05-10T09:40:22;16.40;99.90
21722;DHT22;11023;48.274;7.794;2023-05-10T09:45:22;16.40;99.90
21722;DHT22;11023;48.274;7.794;2023-05-10T09:47:48;16.40;99.90
21722;DHT22;11023;48.274;7.794;2023-05-10T09:50:14;16.40;99.90
21722;DHT22;11023;48.274;7.794;2023-05-10T09:52:56;16.40;99.90
21722;DHT22;11023;48.274;7.794;2023-05-10T09:55:24;16.40;99.90
21722;DHT22;11023;48.274;7.794;2023-05-10T09:57:59;16.30;99.90
21722;DHT22;11023;48.274;7.794;2023-05-10T10:00:26;16.40;99.90
21722;DHT22;11023;48.274;7.794;2023-05-10T10:02:58;16.40;99.90
21722;DHT22;11023;48.274;7.794;2023-05-10T10:05:31;16.50;99.90
21722;DHT22;11023;48.274;7.794;2023-05-10T10:07:58;16.60;99.90
21722;DHT22;11023;48.274;7.794;2023-05-10T10:10:28;16.70;99.90
21722;DHT22;11023;48.274;7.794;2023-05-10T10:12:54;16.80;99.90
21722;DHT22;11023;48.274;7.794;2023-05-10T10:15:21;16.90;99.90
21722;DHT22;11023;48.274;7.794;2023-05-10T10:17:49;17.00;99.90
21722;DHT22;11023;48.274;7.794;2023-05-10T10:20:15;16.90;99.90
21722;DHT22;11023;48.274;7.794;2023-05-10T10:22:42;17.10;99.90
21722;DHT22;11023;48.274;7.794;2023-05-10T10:25:10;17.20;99.90
21722;DHT22;11023;48.274;7.794;2023-05-10T10:30:43;17.50;99.90
21722;DHT22;11023;48.274;7.794;2023-05-10T10:36:00;17.60;99.90
21722;DHT22;11023;48.274;7.794;2023-05-10T10:38:57;17.50;99.90
21722;DHT22;11023;48.274;7.794;2023-05-10T10:41:34;17.50;99.90
21722;DHT22;11023;48.274;7.794;2023-05-10T10:47:05;17.50;99.90
21722;DHT22;11023;48.274;7.794;2023-05-10T11:02:56;17.90;99.90
21722;DHT22;11023;48.274;7.794;2023-05-10T11:05:42;17.80;99.90
21722;DHT22;11023;48.274;7.794;2023-05-10T11:08:30;17.80;99.90
21722;DHT22;11023;48.274;7.794;2023-05-10T11:13:43;18.00;99.90
21722;DHT22;11023;48.274;7.794;2023-05-10T11:16:15;17.90;99.90
21722;DHT22;11023;48.274;7.794;2023-05-10T11:19:05;18.10;99.90
21722;DHT22;11023;48.274;7.794;2023-05-10T11:21:33;18.20;99.90
21722;DHT22;11023;48.274;7.794;2023-05-10T11:24:00;18.30;99.90
21722;DHT22;11023;48.274;7.794;2023-05-10T11:26:31;18.40;99.90
21722;DHT22;11023;48.274;7.794;2023-05-10T11:28:58;18.40;99.90
21722;DHT22;11023;48.274;7.794;2023-05-10T11:31:26;18.40;99.90
21722;DHT22;11023;48.274;7.794;2023-05-10T11:33:56;18.50;99.90
21722;DHT22;11023;48.274;7.794;2023-05-10T11:36:32;18.60;99.90
21722;DHT22;11023;48.274;7.794;2023-05-10T11:38:58;18.60;99.90
21722;DHT22;11023;48.274;7.794;2023-05-10T11:41:24;18.70;99.90
21722;DHT22;11023;48.274;7.794;2023-05-10T11:43:52;18.70;99.90
21722;DHT22;11023;48.274;7.794;2023-05-10T11:46:20;18.80;99.90
21722;DHT22;11023;48.274;7.794;2023-05-10T11:48:47;18.90;99.90
21722;DHT22;11023;48.274;7.794;2023-05-10T11:51:14;18.90;99.90
21722;DHT22;11023;48.274;7.794;2023-05-10T11:53:40;18.90;99.90
21722;DHT22;11023;48.274;7.794;2023-05-10T11:56:10;18.90;99.90
21722;DHT22;11023;48.274;7.794;2023-05-10T11:58:38;18.70;99.90
21722;DHT22;11023;48.274;7.794;2023-05-10T12:01:05;18.70;99.90
21722;DHT22;11023;48.274;7.794;2023-05-10T12:03:36;18.70;99.90
21722;DHT22;11023;48.274;7.794;2023-05-10T12:06:02;18.50;99.90
21722;DHT22;11023;48.274;7.794;2023-05-10T12:08:29;18.50;99.90
21722;DHT22;11023;48.274;7.794;2023-05-10T12:11:06;18.60;99.90
21722;DHT22;11023;48.274;7.794;2023-05-10T12:13:34;18.50;99.90
21722;DHT22;11023;48.274;7.794;2023-05-10T12:16:19;18.50;99.90
21722;DHT22;11023;48.274;7.794;2023-05-10T12:18:49;18.60;99.90
21722;DHT22;11023;48.274;7.794;2023-05-10T12:21:15;18.70;99.90
21722;DHT22;11023;48.274;7.794;2023-05-10T12:23:41;18.90;99.90
21722;DHT22;11023;48.274;7.794;2023-05-10T12:26:10;19.00;99.90
21722;DHT22;11023;48.274;7.794;2023-05-10T12:28:37;19.00;99.90
21722;DHT22;11023;48.274;7.794;2023-05-10T12:31:05;19.30;99.90
21722;DHT22;11023;48.274;7.794;2023-05-10T12:33:42;19.50;99.90
21722;DHT22;11023;48.274;7.794;2023-05-10T12:36:10;19.90;99.90
21722;DHT22;11023;48.274;7.794;2023-05-10T12:41:08;20.10;99.90
21722;DHT22;11023;48.274;7.794;2023-05-10T12:43:34;20.10;99.90
21722;DHT22;11023;48.274;7.794;2023-05-10T12:46:10;20.10;99.90
21722;DHT22;11023;48.274;7.794;2023-05-10T12:48:39;20.20;99.90
21722;DHT22;11023;48.274;7.794;2023-05-10T12:51:06;20.20;99.90
21722;DHT22;11023;48.274;7.794;2023-05-10T12:53:35;20.40;99.90
21722;DHT22;11023;48.274;7.794;2023-05-10T12:56:01;20.50;99.90
21722;DHT22;11023;48.274;7.794;2023-05-10T12:58:27;20.50;99.90
21722;DHT22;11023;48.274;7.794;2023-05-10T13:00:53;20.40;99.90
21722;DHT22;11023;48.274;7.794;2023-05-10T13:03:19;20.30;99.90
21722;DHT22;11023;48.274;7.794;2023-05-10T13:05:44;20.20;99.90
21722;DHT22;11023;48.274;7.794;2023-05-10T13:08:10;20.10;99.90
21722;DHT22;11023;48.274;7.794;2023-05-10T13:10:36;20.40;99.90
21722;DHT22;11023;48.274;7.794;2023-05-10T13:13:02;20.50;99.90
21722;DHT22;11023;48.274;7.794;2023-05-10T13:15:28;21.00;99.90
21722;DHT22;11023;48.274;7.794;2023-05-10T13:17:54;21.40;99.90
21722;DHT22;11023;48.274;7.794;2023-05-10T13:20:20;21.90;99.90
21722;DHT22;11023;48.274;7.794;2023-05-10T13:22:46;22.00;99.90
21722;DHT22;11023;48.274;7.794;2023-05-10T13:25:12;22.30;99.90
21722;DHT22;11023;48.274;7.794;2023-05-10T13:27:39;22.20;99.90
21722;DHT22;11023;48.274;7.794;2023-05-10T13:30:05;22.00;99.90
21722;DHT22;11023;48.274;7.794;2023-05-10T13:32:31;21.90;99.90
21722;DHT22;11023;48.274;7.794;2023-05-10T13:34:57;21.90;99.90
21722;DHT22;11023;48.274;7.794;2023-05-10T13:37:23;21.90;99.90
21722;DHT22;11023;48.274;7.794;2023-05-10T13:39:49;22.00;99.90
21722;DHT22;11023;48.274;7.794;2023-05-10T13:42:14;22.20;99.90
21722;DHT22;11023;48.274;7.794;2023-05-10T13:44:40;22.30;99.90
21722;DHT22;11023;48.274;7.794;2023-05-10T13:47:06;22.20;99.90
21722;DHT22;11023;48.274;7.794;2023-05-10T13:49:32;22.00;99.90
21722;DHT22;11023;48.274;7.794;2023-05-10T13:51:59;21.90;99.90
21722;DHT22;11023;48.274;7.794;2023-05-10T13:54:31;21.90;99.90
21722;DHT22;11023;48.274;7.794;2023-05-10T13:56:57;22.00;99.90
21722;DHT22;11023;48.274;7.794;2023-05-10T13:59:22;21.90;99.90
21722;DHT22;11023;48.274;7.794;2023-05-10T14:01:48;22.10;99.90
21722;DHT22;11023;48.274;7.794;2023-05-10T14:04:14;22.20;99.90
21722;DHT22;11023;48.274;7.794;2023-05-10T14:06:42;22.50;99.90
21722;DHT22;11023;48.274;7.794;2023-05-10T14:09:08;22.70;99.90
21722;DHT22;11023;48.274;7.794;2023-05-10T14:11:34;22.80;99.90
21722;DHT22;11023;48.274;7.794;2023-05-10T14:13:59;22.80;99.90
21722;DHT22;11023;48.274;7.794;2023-05-10T14:16:25;22.80;99.90
21722;DHT22;11023;48.274;7.794;2023-05-10T14:18:51;22.80;99.90
21722;DHT22;11023;48.274;7.794;2023-05-10T14:21:17;22.80;99.90
21722;DHT22;11023;48.274;7.794;2023-05-10T14:23:43;22.90;99.90
21722;DHT22;11023;48.274;7.794;2023-05-10T14:26:08;23.00;99.90
21722;DHT22;11023;48.274;7.794;2023-05-10T14:28:34;23.10;99.90
21722;DHT22;11023;48.274;7.794;2023-05-10T14:30:59;23.40;99.90
21722;DHT22;11023;48.274;7.794;2023-05-10T14:33:25;23.50;99.90
21722;DHT22;11023;48.274;7.794;2023-05-10T14:35:51;23.40;99.90
21722;DHT22;11023;48.274;7.794;2023-05-10T14:38:16;23.20;99.90
21722;DHT22;11023;48.274;7.794;2023-05-10T14:40:42;22.90;99.90
21722;DHT22;11023;48.274;7.794;2023-05-10T14:43:08;22.80;99.90
21722;DHT22;11023;48.274;7.794;2023-05-10T14:45:34;22.50;99.90
21722;DHT22;11023;48.274;7.794;2023-05-10T14:48:00;22.30;99.90
21722;DHT22;11023;48.274;7.794;2023-05-10T14:50:26;22.10;99.90
21722;DHT22;11023;48.274;7.794;2023-05-10T14:52:53;21.80;99.90
21722;DHT22;11023;48.274;7.794;2023-05-10T14:55:19;21.50;99.90
21722;DHT22;11023;48.274;7.794;2023-05-10T14:57:45;21.20;99.90
21722;DHT22;11023;48.274;7.794;2023-05-10T15:00:13;21.00;99.90
21722;DHT22;11023;48.274;7.794;2023-05-10T15:02:40;20.70;99.90
21722;DHT22;11023;48.274;7.794;2023-05-10T15:05:07;20.40;99.90
21722;DHT22;11023;48.274;7.794;2023-05-10T15:07:32;19.90;99.90
21722;DHT22;11023;48.274;7.794;2023-05-10T15:09:58;19.20;99.90
21722;DHT22;11023;48.274;7.794;2023-05-10T15:12:23;18.30;99.90
21722;DHT22;11023;48.274;7.794;2023-05-10T15:14:49;17.60;99.90
21722;DHT22;11023;48.274;7.794;2023-05-10T15:17:15;17.00;99.90
21722;DHT22;11023;48.274;7.794;2023-05-10T15:19:41;16.60;99.90
21722;DHT22;11023;48.274;7.794;2023-05-10T15:22:07;16.40;99.90
21722;DHT22;11023;48.274;7.794;2023-05-10T15:24:33;16.30;99.90
21722;DHT22;11023;48.274;7.794;2023-05-10T15:26:59;16.20;99.90
21722;DHT22;11023;48.274;7.794;2023-05-10T15:29:26;16.20;99.90
21722;DHT22;11023;48.274;7.794;2023-05-10T15:31:51;16.30;99.90
21722;DHT22;11023;48.274;7.794;2023-05-10T15:34:17;16.30;99.90
21722;DHT22;11023;48.274;7.794;2023-05-10T15:36:44;16.50;99.90
21722;DHT22;11023;48.274;7.794;2023-05-10T15:39:10;16.60;99.90
21722;DHT22;11023;48.274;7.794;2023-05-10T15:41:36;16.80;99.90
21722;DHT22;11023;48.274;7.794;2023-05-10T15:44:02;16.90;99.90
21722;DHT22;11023;48.274;7.794;2023-05-10T15:46:28;17.10;99.90
21722;DHT22;11023;48.274;7.794;2023-05-10T15:48:54;17.20;99.90
21722;DHT22;11023;48.274;7.794;2023-05-10T15:51:20;17.40;99.90
21722;DHT22;11023;48.274;7.794;2023-05-10T15:53:46;17.60;99.90
21722;DHT22;11023;48.274;7.794;2023-05-10T15:56:11;17.60;99.90
21722;DHT22;11023;48.274;7.794;2023-05-10T15:58:38;17.80;99.90
21722;DHT22;11023;48.274;7.794;2023-05-10T16:01:04;17.90;99.90
21722;DHT22;11023;48.274;7.794;2023-05-10T16:03:33;17.90;99.90
21722;DHT22;11023;48.274;7.794;2023-05-10T16:05:59;18.00;99.90
21722;DHT22;11023;48.274;7.794;2023-05-10T16:08:25;18.10;99.90
21722;DHT22;11023;48.274;7.794;2023-05-10T16:10:51;18.30;99.90
21722;DHT22;11023;48.274;7.794;2023-05-10T16:13:17;18.40;99.90
21722;DHT22;11023;48.274;7.794;2023-05-10T16:15:43;18.50;99.90
21722;DHT22;11023;48.274;7.794;2023-05-10T16:18:09;18.40;99.90
21722;DHT22;11023;48.274;7.794;2023-05-10T16:20:35;18.40;99.90